Time;durP1;ratioP1;P1;durP2;ratioP2;P2;SDS_P1;SDS_P2;PMS_P1;PMS_P2;Temp;Humidity;BMP_temperature;BMP_pressure;BME280_temperature;BME280_humidity;BME280_pressure;Samples;Min_cycle;Max_cycle;Signal;HPM_P1;HPM_P2
2023/07/30 00:01:49;;;;;;;3.50;2.60;;;;;;;21.96;72.99;98124.19;137463;1273;22249;-83
2023/07/30 00:04:50;;;;;;;4.20;3.00;;;;;;;21.98;72.78;98118.23;137603;1273;22190;-84
2023/07/30 00:07:51;;;;;;;3.50;2.90;;;;;;;21.94;72.76;98121.08;137603;1272;22264;-83
2023/07/30 00:10:52;;;;;;;3.50;2.60;;;;;;;21.96;72.56;98125.60;137580;1269;22336;-83
2023/07/30 00:13:53;;;;;;;2.50;2.30;;;;;;;21.71;72.17;98132.17;137584;1272;22267;-83
2023/07/30 00:16:54;;;;;;;3.80;2.90;;;;;;;21.54;73.44;98138.04;137572;1273;22253;-83
2023/07/30 00:19:55;;;;;;;3.30;2.50;;;;;;;21.47;73.40;98142.95;137543;1273;22296;-83
2023/07/30 00:22:56;;;;;;;4.10;2.40;;;;;;;21.37;73.71;98144.30;137493;1272;22546;-83
2023/07/30 00:25:57;;;;;;;4.30;3.00;;;;;;;21.11;73.93;98148.20;137584;1272;22130;-83
2023/07/30 00:28:58;;;;;;;8.00;3.60;;;;;;;20.55;75.52;98149.20;137540;1273;22159;-83
2023/07/30 00:31:59;;;;;;;3.10;2.80;;;;;;;20.56;77.47;98152.86;137504;1273;22285;-83
2023/07/30 00:35:04;;;;;;;5.60;3.40;;;;;;;20.93;77.83;98152.78;137392;1273;22196;-83
2023/07/30 00:38:05;;;;;;;3.30;2.60;;;;;;;21.24;76.72;98160.20;137522;1273;22131;-83
2023/07/30 00:41:06;;;;;;;3.70;2.90;;;;;;;21.32;75.81;98174.05;137466;1273;22586;-83
2023/07/30 00:44:07;;;;;;;7.30;3.50;;;;;;;21.23;75.26;98181.15;137545;1273;22912;-83
2023/07/30 00:47:08;;;;;;;6.50;3.60;;;;;;;21.05;76.53;98179.05;137462;1273;22229;-84
2023/07/30 00:50:09;;;;;;;6.80;3.20;;;;;;;21.20;76.44;98182.14;137484;1273;22423;-83
2023/07/30 00:53:10;;;;;;;4.90;3.00;;;;;;;21.25;76.06;98182.29;137510;1273;22265;-84
2023/07/30 00:56:11;;;;;;;7.80;3.00;;;;;;;21.21;75.86;98187.04;137440;1273;22204;-84
2023/07/30 00:59:12;;;;;;;5.10;3.00;;;;;;;21.21;76.44;98182.80;137518;1273;22409;-84
2023/07/30 01:02:13;;;;;;;4.60;3.60;;;;;;;21.14;75.52;98182.20;137480;1273;22146;-84
2023/07/30 01:05:14;;;;;;;6.50;2.60;;;;;;;21.02;76.92;98176.50;137565;1273;22219;-83
2023/07/30 01:08:15;;;;;;;5.50;3.10;;;;;;;21.05;77.02;98175.70;137603;1273;22654;-84
2023/07/30 01:11:17;;;;;;;4.90;3.20;;;;;;;21.12;77.46;98178.94;137392;1273;22358;-84
2023/07/30 01:14:19;;;;;;;4.10;2.70;;;;;;;21.33;76.91;98175.42;137239;1273;22552;-83
2023/07/30 01:17:20;;;;;;;4.90;2.30;;;;;;;21.45;76.38;98179.15;137462;1270;22223;-83
2023/07/30 01:20:21;;;;;;;3.20;2.70;;;;;;;21.37;75.67;98180.89;137434;1273;22701;-84
2023/07/30 01:23:22;;;;;;;4.30;3.00;;;;;;;21.29;76.49;98180.00;137486;1273;22555;-83
2023/07/30 01:26:23;;;;;;;3.40;3.10;;;;;;;21.10;76.19;98177.57;137535;1273;22681;-85
2023/07/30 01:29:24;;;;;;;4.30;3.90;;;;;;;20.72;78.09;98170.78;137430;1267;22143;-84
2023/07/30 01:32:25;;;;;;;7.70;4.50;;;;;;;20.77;79.66;98178.75;137520;1273;22222;-85
2023/07/30 01:35:26;;;;;;;5.20;3.10;;;;;;;20.92;80.05;98188.41;137569;1273;22261;-84
2023/07/30 01:38:27;;;;;;;12.40;3.90;;;;;;;21.05;79.54;98190.55;137431;1273;22128;-84
2023/07/30 01:41:28;;;;;;;6.20;3.70;;;;;;;20.90;80.25;98182.80;137496;1273;22406;-84
2023/07/30 01:44:29;;;;;;;18.20;3.70;;;;;;;20.93;80.30;98185.01;137551;1272;22535;-84
2023/07/30 01:47:31;;;;;;;7.80;3.70;;;;;;;20.93;81.23;98190.52;137513;1273;22381;-84
2023/07/30 01:50:32;;;;;;;9.40;3.80;;;;;;;21.06;81.05;98196.13;137539;1273;22170;-85
2023/07/30 01:53:33;;;;;;;6.50;3.40;;;;;;;21.03;80.21;98195.93;137195;1273;22219;-83
2023/07/30 01:56:34;;;;;;;6.50;3.90;;;;;;;20.59;81.12;98191.27;137450;1273;22164;-83
2023/07/30 01:59:35;;;;;;;8.80;4.00;;;;;;;20.31;82.83;98194.27;137378;1273;22191;-84
2023/07/30 02:02:36;;;;;;;5.00;3.30;;;;;;;20.09;83.35;98194.89;137366;1273;23029;-84
2023/07/30 02:05:37;;;;;;;4.70;4.00;;;;;;;19.89;84.62;98187.84;137330;1273;22175;-82
2023/07/30 02:08:38;;;;;;;7.20;5.80;;;;;;;19.77;85.87;98186.15;137408;1273;22264;-84
2023/07/30 02:11:40;;;;;;;4.60;2.90;;;;;;;19.95;86.42;98183.41;137517;1273;22190;-83
2023/07/30 02:14:41;;;;;;;4.70;3.30;;;;;;;19.81;85.94;98185.13;137460;1269;23096;-83
2023/07/30 02:17:42;;;;;;;6.80;3.60;;;;;;;19.73;86.53;98192.98;137533;1273;22125;-84
2023/07/30 02:20:43;;;;;;;7.30;6.60;;;;;;;19.73;88.30;98197.41;137610;1273;22272;-86
2023/07/30 02:23:45;;;;;;;8.10;5.60;;;;;;;19.97;88.42;98198.49;137564;1273;22364;-83
2023/07/30 02:26:46;;;;;;;11.20;5.80;;;;;;;20.18;87.28;98200.91;137447;1273;22126;-84
2023/07/30 02:29:47;;;;;;;7.90;5.20;;;;;;;20.02;85.87;98201.86;137359;1273;23054;-84
2023/07/30 02:32:48;;;;;;;10.10;5.30;;;;;;;19.78;86.85;98204.98;137545;1273;22157;-82
2023/07/30 02:35:49;;;;;;;10.70;5.20;;;;;;;19.63;87.86;98205.89;137366;1273;22655;-83
2023/07/30 02:38:50;;;;;;;11.30;5.80;;;;;;;19.91;89.36;98207.21;137382;1273;22873;-83
2023/07/30 02:43:40;;;;;;;7.50;5.70;;;;;;;20.11;87.39;98207.21;132753;1312;548388;-83
2023/07/30 02:46:41;;;;;;;7.90;5.80;;;;;;;19.70;86.64;98216.40;135848;1287;22526;-82
2023/07/30 02:49:43;;;;;;;13.00;7.40;;;;;;;19.67;88.04;98218.42;136218;1287;22523;-82
2023/07/30 02:52:44;;;;;;;9.30;8.50;;;;;;;19.47;88.30;98215.56;136146;1285;22638;-84
2023/07/30 02:55:45;;;;;;;9.70;8.80;;;;;;;19.67;90.70;98216.69;135874;1284;178923;-84
2023/07/30 02:58:46;;;;;;;9.70;8.60;;;;;;;19.93;88.74;98221.27;136155;1284;25035;-83
2023/07/30 03:01:47;;;;;;;14.40;6.40;;;;;;;19.79;87.77;98223.14;137196;1277;22202;-83
2023/07/30 03:04:50;;;;;;;6.80;5.90;;;;;;;19.53;88.86;98222.80;136735;1277;22375;-84
2023/07/30 03:07:51;;;;;;;15.80;6.50;;;;;;;19.58;90.16;98220.16;136599;1272;22540;-83
2023/07/30 03:10:53;;;;;;;8.70;5.30;;;;;;;19.70;89.76;98215.85;137564;1261;22264;-85
2023/07/30 03:13:54;;;;;;;5.40;4.30;;;;;;;19.52;89.16;98213.81;136950;1273;22579;-84
2023/07/30 03:16:55;;;;;;;6.30;5.80;;;;;;;19.33;89.88;98209.52;136926;1273;22664;-84
2023/07/30 03:19:56;;;;;;;7.40;2.80;;;;;;;19.01;90.35;98212.84;137401;1272;23049;-84
2023/07/30 03:22:59;;;;;;;5.40;3.50;;;;;;;18.81;92.26;98212.75;136985;1273;22708;-83
2023/07/30 03:26:00;;;;;;;6.50;3.30;;;;;;;18.80;93.29;98215.97;136923;1273;22299;-85
2023/07/30 03:29:01;;;;;;;8.90;5.00;;;;;;;18.59;93.74;98225.05;137178;1273;22888;-87
2023/07/30 03:32:02;;;;;;;6.20;4.00;;;;;;;18.55;96.93;98229.40;137162;1273;22200;-85
2023/07/30 03:35:04;;;;;;;4.80;3.20;;;;;;;18.43;98.21;98237.31;136851;1270;22371;-85
2023/07/30 03:38:05;;;;;;;4.80;3.50;;;;;;;18.04;99.75;98236.83;137137;1273;22531;-86
2023/07/30 03:41:06;;;;;;;5.40;3.90;;;;;;;17.74;100.00;98236.05;137291;1273;22223;-84
2023/07/30 03:44:07;;;;;;;4.00;3.60;;;;;;;17.59;100.00;98238.01;137231;1273;22403;-84
2023/07/30 03:47:08;;;;;;;6.10;4.20;;;;;;;17.55;100.00;98244.62;137087;1273;22606;-86
2023/07/30 03:50:09;;;;;;;6.00;4.30;;;;;;;17.54;100.00;98248.34;137412;1273;22227;-85
2023/07/30 03:53:11;;;;;;;5.10;3.70;;;;;;;17.78;100.00;98249.33;137084;1273;22044;-85
2023/07/30 03:56:12;;;;;;;5.90;3.40;;;;;;;17.83;100.00;98254.83;137164;1273;22880;-85
2023/07/30 03:59:13;;;;;;;5.70;4.70;;;;;;;17.81;100.00;98258.56;137466;1274;22358;-84
2023/07/30 04:02:15;;;;;;;9.30;4.30;;;;;;;17.93;100.00;98253.16;137083;1273;22144;-84
2023/07/30 04:05:16;;;;;;;4.90;3.40;;;;;;;17.97;100.00;98254.61;137471;1273;22848;-86
2023/07/30 04:08:17;;;;;;;4.50;3.30;;;;;;;17.98;100.00;98257.77;137479;1273;22339;-85
2023/07/30 04:11:19;;;;;;;7.50;5.20;;;;;;;17.94;100.00;98260.68;137485;1274;22270;-85
2023/07/30 04:14:20;;;;;;;9.60;6.60;;;;;;;18.42;100.00;98263.76;137487;1274;22580;-85
2023/07/30 04:17:21;;;;;;;6.90;6.20;;;;;;;18.81;100.00;98262.46;137497;1273;22318;-85
2023/07/30 04:20:22;;;;;;;6.00;4.60;;;;;;;18.89;100.00;98263.27;137495;1273;22402;-85
2023/07/30 04:23:23;;;;;;;5.70;4.60;;;;;;;19.07;100.00;98265.20;137477;1274;22312;-84
2023/07/30 04:26:25;;;;;;;6.30;3.70;;;;;;;19.03;100.00;98267.63;137461;1274;22272;-85
2023/07/30 04:29:26;;;;;;;3.50;3.10;;;;;;;18.88;100.00;98271.25;137488;1274;22251;-84
2023/07/30 04:32:27;;;;;;;7.40;3.60;;;;;;;18.72;100.00;98268.02;137477;1273;22395;-85
2023/07/30 04:35:28;;;;;;;6.00;2.90;;;;;;;18.64;100.00;98273.89;137425;1273;22240;-85
2023/07/30 04:38:29;;;;;;;6.20;3.20;;;;;;;18.59;100.00;98280.38;137378;1273;22272;-85
2023/07/30 04:41:30;;;;;;;5.40;3.10;;;;;;;18.63;100.00;98271.98;137481;1274;22232;-84
2023/07/30 04:44:31;;;;;;;5.20;4.00;;;;;;;18.66;100.00;98277.36;137475;1273;22194;-85
2023/07/30 04:47:32;;;;;;;5.00;3.30;;;;;;;18.84;100.00;98280.36;137435;1273;22350;-85
2023/07/30 04:50:33;;;;;;;5.80;3.20;;;;;;;18.99;100.00;98284.48;137313;1273;22540;-84
2023/07/30 04:53:35;;;;;;;4.60;3.00;;;;;;;18.85;100.00;98286.48;136691;1274;22648;-86
2023/07/30 04:56:36;;;;;;;6.30;3.80;;;;;;;19.07;100.00;98286.17;137280;1273;22268;-85
2023/07/30 04:59:37;;;;;;;4.80;3.00;;;;;;;19.50;100.00;98282.36;137476;1273;22260;-84
2023/07/30 05:02:38;;;;;;;4.30;3.30;;;;;;;19.57;100.00;98278.07;137486;1274;22221;-84
2023/07/30 05:05:39;;;;;;;5.40;2.70;;;;;;;19.56;100.00;98276.52;137547;1273;22244;-84
